松山國際航空站 - 塔臺

METAR RCSS 310930Z 31007KT 270V340 9999 FEW018 BKN036 BKN050 30/25 Q1009 NOSIG RMK A2982=

站台狀態:Offline
最後更新:2020-05-31 17:30:02